Latest Weather Observations for Rowley Shoals

IDW60801

Issued at 10:14 pm WST Friday 23 April 2021 (issued every 10 minutes, with the page automatically refreshed every 10 minutes)

About weather observations | Map of weather stations | Latest weather observations for WA | Other Formats
Station Details ID: 200713 Name: ROWLEY SHOALS Lat: -17.52 Lon: 118.95 Height: 0.0 m
Data from the previous 72 hours. | See also: Recent months at Rowley Shoals
Date/Time
WST
Temp
°C
App
Temp
°C
Dew
Point
°C
Rel
Hum
%
Delta-T
°C
Wind Press
QNH
hPa
Press
MSL
hPa
Rain since
9am
mm
Dir  Spd
km/h
Gust
km/h
Spd
kts
Gust
kts
23/10:00pm 29.3 - - - - SE 26 30 14 16 1012.9 1012.9 -
23/09:30pm 29.3 - - - - SE 26 30 14 16 1012.9 1012.9 -
23/09:00pm 29.1 - - - - SE 28 33 15 18 1012.9 1012.9 -
23/08:30pm 29.0 - - - - SE 28 32 15 17 1012.9 1012.9 -
23/08:00pm 28.8 - - - - SE 28 32 15 17 1012.7 1012.7 -
23/07:30pm 28.7 - - - - SE 26 30 14 16 1012.3 1012.3 -
23/07:00pm 28.8 - - - - SE 26 30 14 16 1011.9 1011.9 -
23/06:30pm 28.8 - - - - SE 26 30 14 16 1011.6 1011.6 -
23/06:00pm 28.7 - - - - ESE 26 30 14 16 1011.4 1011.4 -
23/05:30pm 28.8 - - - - SE 26 32 14 17 1011.2 1011.2 -
23/05:00pm 29.2 - - - - ESE 28 30 15 16 1010.8 1010.8 -
23/04:30pm 29.3 - - - - ESE 28 30 15 16 1010.7 1010.7 -
23/04:00pm 29.5 - - - - ESE 26 30 14 16 1010.5 1010.5 -
23/03:30pm 29.5 - - - - ESE 26 30 14 16 1010.4 1010.4 -
23/03:00pm 29.6 - - - - ESE 26 30 14 16 1010.4 1010.4 -
23/02:30pm 29.5 - - - - ESE 28 30 15 16 1010.5 1010.5 -
23/02:00pm 29.7 - - - - ESE 28 33 15 18 1010.8 1010.8 -
23/01:30pm 29.6 - - - - ESE 30 33 16 18 1011.0 1011.0 -
23/01:00pm 29.4 - - - - ESE 30 33 16 18 1011.4 1011.4 -
23/12:30pm 29.5 - - - - ESE 30 35 16 19 1011.9 1011.9 -
23/12:00pm 29.7 - - - - ESE 32 35 17 19 1012.3 1012.3 -
23/11:30am 29.7 - - - - ESE 32 37 17 20 1012.5 1012.5 -
23/11:00am 29.6 - - - - ESE 32 37 17 20 1012.9 1012.9 -
23/10:30am 29.7 - - - - ESE 33 39 18 21 1013.2 1013.2 -
23/10:00am 29.8 - - - - ESE 37 43 20 23 1013.1 1013.1 -
23/09:30am 29.7 - - - - ESE 35 39 19 21 1013.0 1013.0 -
23/09:00am 29.6 - - - - ESE 33 39 18 21 1012.7 1012.7 -
23/08:30am 29.8 - - - - ESE 33 37 18 20 1012.6 1012.6 -
23/08:00am 29.5 - - - - ESE 32 35 17 19 1012.5 1012.5 -
23/07:30am 29.5 - - - - SE 28 33 15 18 1012.4 1012.4 -
23/07:00am 29.2 - - - - SE 32 35 17 19 1012.1 1012.1 -
23/06:30am 28.9 - - - - SSE 30 33 16 18 1011.8 1011.8 -
23/06:00am 28.9 - - - - SSE 30 33 16 18 1011.5 1011.5 -
23/05:30am 28.9 - - - - SSE 28 33 15 18 1011.2 1011.2 -
23/05:00am 29.0 - - - - SSE 30 33 16 18 1011.2 1011.2 -
23/04:30am 29.3 - - - - SSE 30 35 16 19 1011.1 1011.1 -
23/04:00am 29.0 - - - - SSE 26 32 14 17 1011.1 1011.1 -
23/03:30am 28.9 - - - - SSE 24 30 13 16 1011.1 1011.1 -
23/03:00am 28.7 - - - - SSE 20 30 11 16 1011.1 1011.1 -
23/02:30am 28.9 - - - - SSE 20 26 11 14 1011.2 1011.2 -
23/02:00am 29.0 - - - - SSE 19 24 10 13 1011.4 1011.4 -
23/01:30am 29.1 - - - - SSE 20 22 11 12 1011.6 1011.6 -
23/01:00am 29.2 - - - - SSE 19 22 10 12 1011.7 1011.7 -
23/12:30am 29.3 - - - - SSE 19 22 10 12 1012.1 1012.1 -
23/12:00am 29.3 - - - - SSE 17 20 9 11 1012.4 1012.4 -
 
Date/Time
WST
Temp
°C
App
Temp
°C
Dew
Point
°C
Rel
Hum
%
Delta-T
°C
Wind Press
QNH
hPa
Press
MSL
hPa
Rain since
9am
mm
Dir  Spd
km/h
Gust
km/h
Spd
kts
Gust
kts
22/11:30pm 29.4 - - - - SE 17 19 9 10 1012.6 1012.6 -
22/11:00pm 29.5 - - - - SE 17 19 9 10 1012.8 1012.8 -
22/10:30pm 29.6 - - - - SE 19 22 10 12 1012.9 1012.9 -
22/10:00pm 29.6 - - - - SE 20 24 11 13 1013.2 1013.2 -
22/09:30pm 29.7 - - - - ESE 22 26 12 14 1013.3 1013.3 -
22/09:00pm 29.7 - - - - ESE 24 28 13 15 1013.4 1013.4 -
22/08:30pm 29.6 - - - - ESE 26 32 14 17 1013.3 1013.3 -
22/08:00pm 29.6 - - - - ESE 26 30 14 16 1013.1 1013.1 -
22/07:30pm 29.4 - - - - ESE 28 32 15 17 1012.6 1012.6 -
22/07:00pm 29.5 - - - - ESE 28 33 15 18 1012.3 1012.3 -
22/06:30pm 29.5 - - - - ESE 30 35 16 19 1012.0 1012.0 -
22/06:00pm 29.5 - - - - ESE 30 35 16 19 1011.6 1011.6 -
22/05:30pm 29.5 - - - - ESE 28 32 15 17 1011.3 1011.3 -
22/05:00pm 29.7 - - - - ESE 30 33 16 18 1011.1 1011.1 -
22/04:30pm 29.6 - - - - ESE 30 33 16 18 1011.0 1011.0 -
22/04:00pm 29.7 - - - - ESE 28 32 15 17 1010.8 1010.8 -
22/03:30pm 29.6 - - - - ESE 30 33 16 18 1010.8 1010.8 -
22/03:00pm 29.6 - - - - ESE 32 35 17 19 1010.9 1010.9 -
22/02:30pm 29.5 - - - - E 32 37 17 20 1011.1 1011.1 -
22/02:00pm 29.5 - - - - E 35 39 19 21 1011.3 1011.3 -
22/01:30pm 29.7 - - - - E 35 41 19 22 1011.6 1011.6 -
22/01:00pm 29.5 - - - - ESE 35 41 19 22 1011.9 1011.9 -
22/12:30pm 29.7 - - - - ESE 37 43 20 23 1012.2 1012.2 -
22/12:00pm 29.7 - - - - ESE 39 44 21 24 1012.5 1012.5 -
22/11:30am 29.7 - - - - E 39 48 21 26 1012.9 1012.9 -
22/11:00am 29.7 - - - - ESE 39 44 21 24 1013.4 1013.4 -
22/10:30am 29.7 - - - - ESE 39 46 21 25 1013.6 1013.6 -
22/10:00am 29.7 - - - - ESE 41 46 22 25 1013.8 1013.8 -
22/09:30am 29.8 - - - - ESE 39 48 21 26 1013.7 1013.7 -
22/09:00am 29.7 - - - - ESE 39 44 21 24 1013.5 1013.5 -
22/08:30am 29.6 - - - - ESE 37 44 20 24 1013.4 1013.4 -
22/08:00am 29.6 - - - - ESE 39 43 21 23 1013.3 1013.3 -
22/07:30am 29.6 - - - - ESE 39 46 21 25 1013.2 1013.2 -
22/07:00am 29.6 - - - - ESE 41 46 22 25 1012.9 1012.9 -
22/06:30am 29.8 - - - - ESE 37 44 20 24 1012.6 1012.6 -
22/06:00am 29.7 - - - - ESE 33 41 18 22 1012.4 1012.4 -
22/05:30am 29.2 - - - - SE 32 35 17 19 1012.2 1012.2 -
22/05:00am 29.0 - - - - SE 32 37 17 20 1012.1 1012.1 -
22/04:30am 29.1 - - - - SSE 32 35 17 19 1012.1 1012.1 -
22/04:00am 29.4 - - - - SSE 30 33 16 18 1012.0 1012.0 -
22/03:30am 28.9 - - - - SSE 24 30 13 16 1012.1 1012.1 -
22/03:00am 28.7 - - - - SSE 22 28 12 15 1012.2 1012.2 -
22/02:30am 28.6 - - - - SSE 13 22 7 12 1012.2 1012.2 -
22/02:00am 28.7 - - - - SSE 11 13 6 7 1012.3 1012.3 -
22/01:30am 28.7 - - - - SE 11 11 6 6 1012.5 1012.5 -
22/01:00am 28.6 - - - - SE 9 11 5 6 1012.9 1012.9 -
22/12:30am 28.7 - - - - ESE 11 13 6 7 1013.2 1013.2 -
22/12:00am 29.0 - - - - E 13 15 7 8 1013.4 1013.4 -
 
Date/Time
WST
Temp
°C
App
Temp
°C
Dew
Point
°C
Rel
Hum
%
Delta-T
°C
Wind Press
QNH
hPa
Press
MSL
hPa
Rain since
9am
mm
Dir  Spd
km/h
Gust
km/h
Spd
kts
Gust
kts
21/11:30pm 28.9 - - - - E 13 17 7 9 1013.6 1013.6 -
21/11:00pm 29.0 - - - - E 13 17 7 9 1013.8 1013.8 -
21/10:30pm 29.1 - - - - ESE 13 17 7 9 1013.8 1013.8 -
21/10:00pm 29.3 - - - - ESE 15 17 8 9 1013.8 1013.8 -
21/09:30pm 29.4 - - - - ESE 17 19 9 10 1013.9 1013.9 -
21/09:00pm 29.4 - - - - ESE 17 20 9 11 1013.9 1013.9 -
21/08:30pm 29.6 - - - - ESE 20 24 11 13 1013.7 1013.7 -
21/08:00pm 29.5 - - - - ESE 20 24 11 13 1013.5 1013.5 -
21/07:30pm 29.6 - - - - ESE 20 22 11 12 1013.0 1013.0 -
21/07:00pm 29.5 - - - - ESE 19 22 10 12 1012.7 1012.7 -
21/06:30pm 29.9 - - - - SE 20 24 11 13 1012.3 1012.3 -
21/06:00pm 29.7 - - - - SE 20 24 11 13 1012.1 1012.1 -
21/05:30pm 29.7 - - - - SE 20 24 11 13 1011.8 1011.8 -
21/05:00pm 30.0 - - - - SE 22 26 12 14 1011.5 1011.5 -
21/04:30pm 30.0 - - - - ESE 22 26 12 14 1011.3 1011.3 -
21/04:00pm 29.9 - - - - ESE 22 26 12 14 1011.2 1011.2 -
21/03:30pm 29.8 - - - - ESE 24 28 13 15 1011.2 1011.2 -
21/03:00pm 29.8 - - - - ESE 24 30 13 16 1011.3 1011.3 -
21/02:30pm 29.6 - - - - E 24 28 13 15 1011.5 1011.5 -
21/02:00pm 29.5 - - - - ESE 24 28 13 15 1011.7 1011.7 -
21/01:30pm 29.6 - - - - ESE 26 30 14 16 1011.9 1011.9 -
21/01:00pm 29.3 - - - - ESE 24 30 13 16 1012.1 1012.1 -
21/12:30pm 29.3 - - - - ESE 24 28 13 15 1012.4 1012.4 -
21/12:00pm 29.2 - - - - SE 24 28 13 15 1012.9 1012.9 -
21/11:30am 29.3 - - - - SE 28 32 15 17 1013.3 1013.3 -
21/11:00am 29.3 - - - - SE 28 33 15 18 1013.5 1013.5 -
21/10:30am 29.2 - - - - SSE 28 32 15 17 1013.8 1013.8 -
21/10:00am 29.1 - - - - SE 28 32 15 17 1013.9 1013.9 -
21/09:30am 28.9 - - - - SSE 28 32 15 17 1013.8 1013.8 -
21/09:00am 28.8 - - - - SSE 22 32 12 17 1013.6 1013.6 -
21/08:30am 28.6 - - - - SSE 22 30 12 16 1013.5 1013.5 -
21/08:00am 28.2 - - - - SSE 26 32 14 17 1013.3 1013.3 -
21/07:30am 28.3 - - - - SSE 20 28 11 15 1013.1 1013.1 -
21/07:00am 28.2 - - - - SSE 19 26 10 14 1012.8 1012.8 -
21/06:30am 27.9 - - - - S 19 30 10 16 1012.5 1012.5 -
21/06:00am 28.0 - - - - SSE 20 26 11 14 1012.3 1012.3 -
21/05:30am 27.9 - - - - S 20 28 11 15 1012.1 1012.1 -
21/05:00am 28.1 - - - - S 20 30 11 16 1012.0 1012.0 -
21/04:30am 28.2 - - - - S 20 26 11 14 1011.8 1011.8 -
21/04:00am 28.1 - - - - S 20 28 11 15 1011.5 1011.5 -
21/03:30am 28.0 - - - - S 17 28 9 15 1011.4 1011.4 -
21/03:00am 27.7 - - - - S 15 22 8 12 1011.4 1011.4 -
21/02:30am 27.7 - - - - S 15 20 8 11 1011.5 1011.5 -
21/02:00am 27.8 - - - - S 15 20 8 11 1011.8 1011.8 -
21/01:30am 27.8 - - - - S 11 15 6 8 1011.7 1011.7 -
21/01:00am 27.8 - - - - S 9 11 5 6 1012.1 1012.1 -
21/12:30am 27.9 - - - - SSE 11 15 6 8 1012.4 1012.4 -
21/12:00am 27.9 - - - - S 13 17 7 9 1012.8 1012.8 -
 
Date/Time
WST
Temp
°C
App
Temp
°C
Dew
Point
°C
Rel
Hum
%
Delta-T
°C
Wind Press
QNH
hPa
Press
MSL
hPa
Rain since
9am
mm
Dir  Spd
km/h
Gust
km/h
Spd
kts
Gust
kts
20/11:30pm 27.9 - - - - S 11 17 6 9 1012.8 1012.8 -
20/11:00pm 28.0 - - - - SSE 13 17 7 9 1013.0 1013.0 -
20/10:30pm 28.1 - - - - SSE 13 17 7 9 1013.2 1013.2 -

Other formats

Comma delimited format used in spreadsheet applications
http://www.bom.gov.au/fwo/IDW60801/IDW60801.94207.axf

JavaScript Object Notation format (JSON) in row-major order
http://www.bom.gov.au/fwo/IDW60801/IDW60801.94207.json

Data quality

Most of these data are generated automatically and are frequently updated. Quality checks on data are not normally performed. It is possible for incorrect values to appear. Refer to information at About Latest Weather Observations and please check the disclaimer before using these data.